New Richland, Minnesota
Current Conditions -  °F | °C
As of 1:55 PM on Wednesday 17 Dec 2014 (Local Time) from KACQ Reporting Station
Clear Clear  
Wind Chill:   Ceiling: Unl
Heat Index: 19°   Visibility: 10mi
Dew Point: 14°   Wind: 8mph
Humidity: 80%   Direction: 330°NNW
Pressure: 30.28"   Gusts: NA
Location:  43.89°N, 93.49°W
Report Text: KACQ 171955Z AUTO 33007KT 10SM CLR M07/M10 A3028 RMK AO2
Loading
Personal Weather Stations






























Interactive Weather Map New forecast layout! Learn more

10-Day Weather Forecast

Advertisements
Track Severe Weather on mobile